sensor_id;sensor_type;location;lat;lon;timestamp;temperature;humidity
20574;DHT22;10445;50.216;7.912;2023-06-04T07:25:22;15.80;1.00
20574;DHT22;10445;50.216;7.912;2023-06-04T07:28:23;15.80;1.00
20574;DHT22;10445;50.216;7.912;2023-06-04T07:31:35;15.90;1.00
20574;DHT22;10445;50.216;7.912;2023-06-04T07:34:59;16.00;1.00
20574;DHT22;10445;50.216;7.912;2023-06-04T07:37:59;16.10;1.00
20574;DHT22;10445;50.216;7.912;2023-06-04T07:40:57;16.20;1.00
20574;DHT22;10445;50.216;7.912;2023-06-04T07:43:55;16.30;1.00
20574;DHT22;10445;50.216;7.912;2023-06-04T07:46:45;16.40;1.00
20574;DHT22;10445;50.216;7.912;2023-06-04T07:49:34;16.40;1.00
20574;DHT22;10445;50.216;7.912;2023-06-04T07:52:36;16.40;1.00
20574;DHT22;10445;50.216;7.912;2023-06-04T07:55:25;16.50;1.00
20574;DHT22;10445;50.216;7.912;2023-06-04T07:58:16;16.50;1.00
20574;DHT22;10445;50.216;7.912;2023-06-04T08:01:04;16.60;1.00
20574;DHT22;10445;50.216;7.912;2023-06-04T08:03:56;16.70;1.00
20574;DHT22;10445;50.216;7.912;2023-06-04T08:06:48;16.70;1.00
20574;DHT22;10445;50.216;7.912;2023-06-04T08:09:39;16.80;1.00
20574;DHT22;10445;50.216;7.912;2023-06-04T08:12:29;16.90;1.00
20574;DHT22;10445;50.216;7.912;2023-06-04T08:15:19;17.00;1.00
20574;DHT22;10445;50.216;7.912;2023-06-04T08:18:08;17.20;1.00
20574;DHT22;10445;50.216;7.912;2023-06-04T08:20:57;17.30;1.00
20574;DHT22;10445;50.216;7.912;2023-06-04T08:23:45;17.40;1.00
20574;DHT22;10445;50.216;7.912;2023-06-04T08:26:34;17.40;1.00
20574;DHT22;10445;50.216;7.912;2023-06-04T08:29:23;17.50;1.00
20574;DHT22;10445;50.216;7.912;2023-06-04T08:32:13;17.50;1.00
20574;DHT22;10445;50.216;7.912;2023-06-04T08:35:03;17.70;1.00
20574;DHT22;10445;50.216;7.912;2023-06-04T08:37:52;17.90;1.00
20574;DHT22;10445;50.216;7.912;2023-06-04T08:40:41;18.00;1.00
20574;DHT22;10445;50.216;7.912;2023-06-04T08:43:32;18.00;1.00
20574;DHT22;10445;50.216;7.912;2023-06-04T08:46:21;18.10;1.00
20574;DHT22;10445;50.216;7.912;2023-06-04T08:49:14;18.30;1.00
20574;DHT22;10445;50.216;7.912;2023-06-04T08:52:04;18.30;1.00
20574;DHT22;10445;50.216;7.912;2023-06-04T08:54:54;18.40;1.00
20574;DHT22;10445;50.216;7.912;2023-06-04T08:57:44;18.50;1.00
20574;DHT22;10445;50.216;7.912;2023-06-04T09:00:33;18.60;1.00
20574;DHT22;10445;50.216;7.912;2023-06-04T09:03:22;18.90;1.00
20574;DHT22;10445;50.216;7.912;2023-06-04T09:06:14;18.80;1.00
20574;DHT22;10445;50.216;7.912;2023-06-04T09:09:05;18.80;1.00
20574;DHT22;10445;50.216;7.912;2023-06-04T09:11:57;18.90;1.00
20574;DHT22;10445;50.216;7.912;2023-06-04T09:14:47;18.90;1.00
20574;DHT22;10445;50.216;7.912;2023-06-04T09:17:37;18.90;1.00
20574;DHT22;10445;50.216;7.912;2023-06-04T09:20:27;18.80;1.00
20574;DHT22;10445;50.216;7.912;2023-06-04T09:23:18;18.90;1.00
20574;DHT22;10445;50.216;7.912;2023-06-04T09:26:09;19.00;1.00
20574;DHT22;10445;50.216;7.912;2023-06-04T09:28:58;18.90;1.00
20574;DHT22;10445;50.216;7.912;2023-06-04T09:31:56;19.10;1.00
20574;DHT22;10445;50.216;7.912;2023-06-04T09:34:45;19.20;1.00
20574;DHT22;10445;50.216;7.912;2023-06-04T09:37:35;19.40;1.00
20574;DHT22;10445;50.216;7.912;2023-06-04T09:40:35;19.60;1.00
20574;DHT22;10445;50.216;7.912;2023-06-04T09:43:24;19.90;1.00
20574;DHT22;10445;50.216;7.912;2023-06-04T09:46:15;20.10;1.00
20574;DHT22;10445;50.216;7.912;2023-06-04T09:49:05;20.10;1.00
20574;DHT22;10445;50.216;7.912;2023-06-04T09:51:54;20.00;1.00
20574;DHT22;10445;50.216;7.912;2023-06-04T09:54:43;20.30;1.00
20574;DHT22;10445;50.216;7.912;2023-06-04T09:57:34;20.40;1.00
20574;DHT22;10445;50.216;7.912;2023-06-04T10:00:23;21.10;1.00
20574;DHT22;10445;50.216;7.912;2023-06-04T10:03:15;21.60;1.00
20574;DHT22;10445;50.216;7.912;2023-06-04T10:06:07;21.70;1.00
20574;DHT22;10445;50.216;7.912;2023-06-04T10:08:57;21.70;1.00
20574;DHT22;10445;50.216;7.912;2023-06-04T10:11:50;21.50;1.00
20574;DHT22;10445;50.216;7.912;2023-06-04T10:14:48;21.20;1.00
20574;DHT22;10445;50.216;7.912;2023-06-04T10:17:41;21.10;1.00
20574;DHT22;10445;50.216;7.912;2023-06-04T10:20:31;21.10;1.00
20574;DHT22;10445;50.216;7.912;2023-06-04T10:23:20;20.90;1.00
20574;DHT22;10445;50.216;7.912;2023-06-04T10:26:10;20.90;1.00
20574;DHT22;10445;50.216;7.912;2023-06-04T10:29:02;20.80;1.00
20574;DHT22;10445;50.216;7.912;2023-06-04T10:31:55;20.80;1.00
20574;DHT22;10445;50.216;7.912;2023-06-04T10:34:43;20.70;1.00
20574;DHT22;10445;50.216;7.912;2023-06-04T10:37:33;20.60;1.00
20574;DHT22;10445;50.216;7.912;2023-06-04T10:40:31;20.60;1.00
20574;DHT22;10445;50.216;7.912;2023-06-04T10:43:20;20.80;1.00
20574;DHT22;10445;50.216;7.912;2023-06-04T10:46:13;21.00;1.00
20574;DHT22;10445;50.216;7.912;2023-06-04T10:49:03;21.00;1.00
20574;DHT22;10445;50.216;7.912;2023-06-04T10:51:52;21.10;1.00
20574;DHT22;10445;50.216;7.912;2023-06-04T10:54:44;21.10;1.00
20574;DHT22;10445;50.216;7.912;2023-06-04T10:57:33;20.90;1.00
20574;DHT22;10445;50.216;7.912;2023-06-04T11:00:34;20.90;1.00
20574;DHT22;10445;50.216;7.912;2023-06-04T11:03:23;20.90;1.00
20574;DHT22;10445;50.216;7.912;2023-06-04T11:06:17;20.90;1.00
20574;DHT22;10445;50.216;7.912;2023-06-04T11:09:06;21.00;1.00
20574;DHT22;10445;50.216;7.912;2023-06-04T11:11:58;21.20;1.00
20574;DHT22;10445;50.216;7.912;2023-06-04T11:14:56;21.20;1.00
20574;DHT22;10445;50.216;7.912;2023-06-04T11:17:50;21.30;1.00
20574;DHT22;10445;50.216;7.912;2023-06-04T11:20:39;21.50;1.00
20574;DHT22;10445;50.216;7.912;2023-06-04T11:23:32;21.80;1.00
20574;DHT22;10445;50.216;7.912;2023-06-04T11:26:21;21.80;1.00
20574;DHT22;10445;50.216;7.912;2023-06-04T11:29:13;21.70;1.00
20574;DHT22;10445;50.216;7.912;2023-06-04T11:32:04;21.80;1.00
20574;DHT22;10445;50.216;7.912;2023-06-04T11:35:02;21.90;1.00
20574;DHT22;10445;50.216;7.912;2023-06-04T11:37:56;22.00;1.00
20574;DHT22;10445;50.216;7.912;2023-06-04T11:40:57;22.40;1.00
20574;DHT22;10445;50.216;7.912;2023-06-04T11:43:47;22.90;1.00
20574;DHT22;10445;50.216;7.912;2023-06-04T11:46:40;23.30;1.00
20574;DHT22;10445;50.216;7.912;2023-06-04T11:49:30;23.00;1.00
20574;DHT22;10445;50.216;7.912;2023-06-04T11:52:19;22.40;1.00
20574;DHT22;10445;50.216;7.912;2023-06-04T11:55:09;22.10;1.00
20574;DHT22;10445;50.216;7.912;2023-06-04T11:58:00;21.90;1.00
20574;DHT22;10445;50.216;7.912;2023-06-04T12:00:49;21.80;1.00
20574;DHT22;10445;50.216;7.912;2023-06-04T12:03:40;21.70;1.00
20574;DHT22;10445;50.216;7.912;2023-06-04T12:06:29;21.70;1.00
20574;DHT22;10445;50.216;7.912;2023-06-04T12:09:21;21.70;1.00
20574;DHT22;10445;50.216;7.912;2023-06-04T12:12:11;21.70;1.00
20574;DHT22;10445;50.216;7.912;2023-06-04T12:15:02;21.70;1.00
20574;DHT22;10445;50.216;7.912;2023-06-04T12:17:53;21.90;1.00
20574;DHT22;10445;50.216;7.912;2023-06-04T12:20:42;21.70;1.00
20574;DHT22;10445;50.216;7.912;2023-06-04T12:23:34;21.70;1.00
20574;DHT22;10445;50.216;7.912;2023-06-04T12:26:23;22.00;1.00
20574;DHT22;10445;50.216;7.912;2023-06-04T12:29:17;22.00;1.00
20574;DHT22;10445;50.216;7.912;2023-06-04T12:32:09;21.90;1.00
20574;DHT22;10445;50.216;7.912;2023-06-04T12:34:59;21.80;1.00
20574;DHT22;10445;50.216;7.912;2023-06-04T12:37:48;21.80;1.00
20574;DHT22;10445;50.216;7.912;2023-06-04T12:40:36;22.00;1.00
20574;DHT22;10445;50.216;7.912;2023-06-04T12:43:25;22.10;1.00
20574;DHT22;10445;50.216;7.912;2023-06-04T12:46:14;22.20;1.00
20574;DHT22;10445;50.216;7.912;2023-06-04T12:49:04;22.30;1.00
20574;DHT22;10445;50.216;7.912;2023-06-04T12:51:53;22.40;1.00
20574;DHT22;10445;50.216;7.912;2023-06-04T12:54:43;22.40;1.00
20574;DHT22;10445;50.216;7.912;2023-06-04T12:57:32;22.40;1.00
20574;DHT22;10445;50.216;7.912;2023-06-04T13:00:21;22.20;1.00
20574;DHT22;10445;50.216;7.912;2023-06-04T13:03:10;22.20;1.00
20574;DHT22;10445;50.216;7.912;2023-06-04T13:06:00;22.10;1.00
20574;DHT22;10445;50.216;7.912;2023-06-04T13:08:49;22.10;1.00
20574;DHT22;10445;50.216;7.912;2023-06-04T13:11:39;22.20;1.00
20574;DHT22;10445;50.216;7.912;2023-06-04T13:14:28;22.30;1.00
20574;DHT22;10445;50.216;7.912;2023-06-04T13:17:20;22.40;1.00
20574;DHT22;10445;50.216;7.912;2023-06-04T13:20:10;22.50;1.00
20574;DHT22;10445;50.216;7.912;2023-06-04T13:23:00;22.50;1.00
20574;DHT22;10445;50.216;7.912;2023-06-04T13:25:49;22.50;1.00
20574;DHT22;10445;50.216;7.912;2023-06-04T13:28:39;22.70;1.00
20574;DHT22;10445;50.216;7.912;2023-06-04T13:31:28;22.30;1.00
20574;DHT22;10445;50.216;7.912;2023-06-04T13:34:17;22.20;1.00
20574;DHT22;10445;50.216;7.912;2023-06-04T13:37:14;22.30;1.00
20574;DHT22;10445;50.216;7.912;2023-06-04T13:40:06;22.40;1.00
20574;DHT22;10445;50.216;7.912;2023-06-04T13:42:55;22.50;1.00
20574;DHT22;10445;50.216;7.912;2023-06-04T13:45:43;22.50;1.00
20574;DHT22;10445;50.216;7.912;2023-06-04T13:48:33;22.50;1.00
20574;DHT22;10445;50.216;7.912;2023-06-04T13:51:22;22.70;1.00
20574;DHT22;10445;50.216;7.912;2023-06-04T13:54:10;22.80;1.00
20574;DHT22;10445;50.216;7.912;2023-06-04T13:57:03;23.00;1.00
20574;DHT22;10445;50.216;7.912;2023-06-04T13:59:53;23.10;1.00
20574;DHT22;10445;50.216;7.912;2023-06-04T14:02:42;23.10;1.00
20574;DHT22;10445;50.216;7.912;2023-06-04T14:05:31;23.00;1.00
20574;DHT22;10445;50.216;7.912;2023-06-04T14:08:20;23.00;1.00
20574;DHT22;10445;50.216;7.912;2023-06-04T14:11:09;23.00;1.00
20574;DHT22;10445;50.216;7.912;2023-06-04T14:14:00;22.90;1.00
20574;DHT22;10445;50.216;7.912;2023-06-04T14:16:49;22.80;1.00
20574;DHT22;10445;50.216;7.912;2023-06-04T14:19:44;22.80;1.00
20574;DHT22;10445;50.216;7.912;2023-06-04T14:22:34;23.00;1.00
20574;DHT22;10445;50.216;7.912;2023-06-04T14:25:23;23.10;1.00
20574;DHT22;10445;50.216;7.912;2023-06-04T14:28:12;23.10;1.00
20574;DHT22;10445;50.216;7.912;2023-06-04T14:31:02;23.10;1.00
20574;DHT22;10445;50.216;7.912;2023-06-04T14:33:51;23.00;1.00
20574;DHT22;10445;50.216;7.912;2023-06-04T14:36:40;23.00;1.00
20574;DHT22;10445;50.216;7.912;2023-06-04T14:39:29;23.00;1.00
20574;DHT22;10445;50.216;7.912;2023-06-04T14:42:18;22.90;1.00
20574;DHT22;10445;50.216;7.912;2023-06-04T14:45:07;23.00;1.00
20574;DHT22;10445;50.216;7.912;2023-06-04T14:47:58;23.30;1.00
20574;DHT22;10445;50.216;7.912;2023-06-04T14:51:01;23.40;1.00
20574;DHT22;10445;50.216;7.912;2023-06-04T14:53:50;23.30;1.00
20574;DHT22;10445;50.216;7.912;2023-06-04T14:56:39;23.40;1.00
20574;DHT22;10445;50.216;7.912;2023-06-04T14:59:28;23.40;1.00
20574;DHT22;10445;50.216;7.912;2023-06-04T15:02:17;23.40;1.00
20574;DHT22;10445;50.216;7.912;2023-06-04T15:05:09;23.50;1.00
20574;DHT22;10445;50.216;7.912;2023-06-04T15:07:58;23.50;1.00
20574;DHT22;10445;50.216;7.912;2023-06-04T15:10:47;23.40;1.00
20574;DHT22;10445;50.216;7.912;2023-06-04T15:13:37;23.40;1.00
20574;DHT22;10445;50.216;7.912;2023-06-04T15:16:26;23.30;1.00
20574;DHT22;10445;50.216;7.912;2023-06-04T15:19:15;23.30;1.00
20574;DHT22;10445;50.216;7.912;2023-06-04T15:22:05;23.20;1.00
20574;DHT22;10445;50.216;7.912;2023-06-04T15:24:54;23.20;1.00
20574;DHT22;10445;50.216;7.912;2023-06-04T15:27:43;23.40;1.00
20574;DHT22;10445;50.216;7.912;2023-06-04T15:30:32;23.60;1.00
20574;DHT22;10445;50.216;7.912;2023-06-04T15:33:21;23.60;1.00
20574;DHT22;10445;50.216;7.912;2023-06-04T15:36:09;23.50;1.00
20574;DHT22;10445;50.216;7.912;2023-06-04T15:39:00;23.40;1.00
20574;DHT22;10445;50.216;7.912;2023-06-04T15:41:49;23.40;1.00
20574;DHT22;10445;50.216;7.912;2023-06-04T15:44:37;23.30;1.00
20574;DHT22;10445;50.216;7.912;2023-06-04T15:47:26;23.20;1.00
20574;DHT22;10445;50.216;7.912;2023-06-04T15:50:15;23.00;1.00
20574;DHT22;10445;50.216;7.912;2023-06-04T15:53:04;22.80;1.00
20574;DHT22;10445;50.216;7.912;2023-06-04T15:55:54;22.60;1.00
20574;DHT22;10445;50.216;7.912;2023-06-04T15:58:43;22.40;1.00
20574;DHT22;10445;50.216;7.912;2023-06-04T16:01:35;22.30;1.00
20574;DHT22;10445;50.216;7.912;2023-06-04T16:04:23;22.10;1.00
20574;DHT22;10445;50.216;7.912;2023-06-04T16:07:12;22.20;1.00
20574;DHT22;10445;50.216;7.912;2023-06-04T16:10:01;22.00;1.00
20574;DHT22;10445;50.216;7.912;2023-06-04T16:12:51;22.00;1.00
20574;DHT22;10445;50.216;7.912;2023-06-04T16:15:40;21.90;1.00
20574;DHT22;10445;50.216;7.912;2023-06-04T16:18:29;21.90;1.00
20574;DHT22;10445;50.216;7.912;2023-06-04T16:21:18;21.90;1.00
20574;DHT22;10445;50.216;7.912;2023-06-04T16:24:07;21.90;1.00
20574;DHT22;10445;50.216;7.912;2023-06-04T16:26:56;21.80;1.00
20574;DHT22;10445;50.216;7.912;2023-06-04T16:29:46;21.70;1.00
20574;DHT22;10445;50.216;7.912;2023-06-04T16:32:35;21.70;1.00
20574;DHT22;10445;50.216;7.912;2023-06-04T16:35:24;21.60;1.00
20574;DHT22;10445;50.216;7.912;2023-06-04T16:38:14;21.60;1.00
20574;DHT22;10445;50.216;7.912;2023-06-04T16:41:04;21.60;1.00
20574;DHT22;10445;50.216;7.912;2023-06-04T16:43:53;21.60;1.00
20574;DHT22;10445;50.216;7.912;2023-06-04T16:46:43;21.50;1.00
20574;DHT22;10445;50.216;7.912;2023-06-04T16:49:32;21.50;1.00
20574;DHT22;10445;50.216;7.912;2023-06-04T16:52:21;21.40;1.00
20574;DHT22;10445;50.216;7.912;2023-06-04T16:55:10;21.40;1.00
20574;DHT22;10445;50.216;7.912;2023-06-04T16:57:59;21.30;1.00
20574;DHT22;10445;50.216;7.912;2023-06-04T17:00:48;21.30;1.00
20574;DHT22;10445;50.216;7.912;2023-06-04T17:03:38;21.30;1.00
20574;DHT22;10445;50.216;7.912;2023-06-04T17:06:27;21.20;1.00
20574;DHT22;10445;50.216;7.912;2023-06-04T17:09:16;21.20;1.00
20574;DHT22;10445;50.216;7.912;2023-06-04T17:12:05;21.20;1.00
20574;DHT22;10445;50.216;7.912;2023-06-04T17:14:55;21.10;1.00
20574;DHT22;10445;50.216;7.912;2023-06-04T17:17:44;21.10;1.00
20574;DHT22;10445;50.216;7.912;2023-06-04T17:20:38;21.10;1.00
20574;DHT22;10445;50.216;7.912;2023-06-04T17:23:28;21.00;1.00
20574;DHT22;10445;50.216;7.912;2023-06-04T17:26:18;21.00;1.00
20574;DHT22;10445;50.216;7.912;2023-06-04T17:29:07;20.90;1.00
20574;DHT22;10445;50.216;7.912;2023-06-04T17:31:56;20.90;1.00
20574;DHT22;10445;50.216;7.912;2023-06-04T17:34:44;20.80;1.00
20574;DHT22;10445;50.216;7.912;2023-06-04T17:37:35;20.80;1.00
20574;DHT22;10445;50.216;7.912;2023-06-04T17:40:24;20.70;1.00
20574;DHT22;10445;50.216;7.912;2023-06-04T17:43:14;20.70;1.00
20574;DHT22;10445;50.216;7.912;2023-06-04T17:46:02;20.60;1.00
20574;DHT22;10445;50.216;7.912;2023-06-04T17:48:52;20.50;1.00
20574;DHT22;10445;50.216;7.912;2023-06-04T17:51:40;20.40;1.00
20574;DHT22;10445;50.216;7.912;2023-06-04T17:54:30;20.40;1.00
20574;DHT22;10445;50.216;7.912;2023-06-04T17:57:19;20.30;1.00
20574;DHT22;10445;50.216;7.912;2023-06-04T18:00:09;20.30;1.00
20574;DHT22;10445;50.216;7.912;2023-06-04T18:02:58;20.30;1.00
20574;DHT22;10445;50.216;7.912;2023-06-04T18:05:47;20.20;1.00
20574;DHT22;10445;50.216;7.912;2023-06-04T18:08:36;20.10;1.00
20574;DHT22;10445;50.216;7.912;2023-06-04T18:11:26;20.10;1.00
20574;DHT22;10445;50.216;7.912;2023-06-04T18:14:15;20.00;1.00
20574;DHT22;10445;50.216;7.912;2023-06-04T18:17:04;19.90;1.00
20574;DHT22;10445;50.216;7.912;2023-06-04T18:19:53;19.90;1.00
20574;DHT22;10445;50.216;7.912;2023-06-04T18:22:42;19.80;1.00
20574;DHT22;10445;50.216;7.912;2023-06-04T18:25:30;19.80;1.00
20574;DHT22;10445;50.216;7.912;2023-06-04T18:28:21;19.70;1.00
20574;DHT22;10445;50.216;7.912;2023-06-04T18:31:09;19.60;1.00
20574;DHT22;10445;50.216;7.912;2023-06-04T18:33:58;19.50;1.00
20574;DHT22;10445;50.216;7.912;2023-06-04T18:36:49;19.40;1.00
20574;DHT22;10445;50.216;7.912;2023-06-04T18:39:40;19.40;1.00
20574;DHT22;10445;50.216;7.912;2023-06-04T18:42:29;19.30;1.00
20574;DHT22;10445;50.216;7.912;2023-06-04T18:45:19;19.20;1.00
20574;DHT22;10445;50.216;7.912;2023-06-04T18:48:08;19.10;1.00
20574;DHT22;10445;50.216;7.912;2023-06-04T18:50:57;19.00;1.00
20574;DHT22;10445;50.216;7.912;2023-06-04T18:53:46;18.90;1.00
20574;DHT22;10445;50.216;7.912;2023-06-04T18:56:34;18.80;1.00
20574;DHT22;10445;50.216;7.912;2023-06-04T18:59:23;18.70;1.00
20574;DHT22;10445;50.216;7.912;2023-06-04T19:02:13;18.60;1.00
20574;DHT22;10445;50.216;7.912;2023-06-04T19:05:03;18.50;1.00
20574;DHT22;10445;50.216;7.912;2023-06-04T19:07:54;18.30;1.00
20574;DHT22;10445;50.216;7.912;2023-06-04T19:10:43;18.10;1.00
20574;DHT22;10445;50.216;7.912;2023-06-04T19:13:33;17.90;1.00
20574;DHT22;10445;50.216;7.912;2023-06-04T19:16:22;17.60;1.00
20574;DHT22;10445;50.216;7.912;2023-06-04T19:19:12;17.40;1.00
20574;DHT22;10445;50.216;7.912;2023-06-04T19:22:01;17.30;1.00
20574;DHT22;10445;50.216;7.912;2023-06-04T19:24:50;17.20;1.00
20574;DHT22;10445;50.216;7.912;2023-06-04T19:27:38;17.20;1.00
20574;DHT22;10445;50.216;7.912;2023-06-04T19:30:29;17.20;1.00
20574;DHT22;10445;50.216;7.912;2023-06-04T19:33:18;17.10;1.00
20574;DHT22;10445;50.216;7.912;2023-06-04T19:36:08;17.00;1.00
20574;DHT22;10445;50.216;7.912;2023-06-04T19:38:57;16.90;1.00
20574;DHT22;10445;50.216;7.912;2023-06-04T19:41:47;16.90;1.00
20574;DHT22;10445;50.216;7.912;2023-06-04T19:44:36;16.80;1.00
20574;DHT22;10445;50.216;7.912;2023-06-04T19:47:25;16.70;1.00
20574;DHT22;10445;50.216;7.912;2023-06-04T19:50:14;16.60;1.00
20574;DHT22;10445;50.216;7.912;2023-06-04T19:53:04;16.50;1.00
20574;DHT22;10445;50.216;7.912;2023-06-04T19:55:53;16.40;1.00
20574;DHT22;10445;50.216;7.912;2023-06-04T19:58:41;16.30;1.00
20574;DHT22;10445;50.216;7.912;2023-06-04T20:01:30;16.30;1.00
20574;DHT22;10445;50.216;7.912;2023-06-04T20:04:20;16.20;1.00
20574;DHT22;10445;50.216;7.912;2023-06-04T20:07:09;16.10;1.00
20574;DHT22;10445;50.216;7.912;2023-06-04T20:09:59;16.10;1.00
20574;DHT22;10445;50.216;7.912;2023-06-04T20:12:48;16.00;1.00
20574;DHT22;10445;50.216;7.912;2023-06-04T20:15:37;16.00;1.00
20574;DHT22;10445;50.216;7.912;2023-06-04T20:18:25;15.90;1.00
20574;DHT22;10445;50.216;7.912;2023-06-04T20:21:16;15.80;1.00
20574;DHT22;10445;50.216;7.912;2023-06-04T20:24:05;15.80;1.00
20574;DHT22;10445;50.216;7.912;2023-06-04T20:26:57;15.70;1.00
20574;DHT22;10445;50.216;7.912;2023-06-04T20:29:46;15.70;1.00
20574;DHT22;10445;50.216;7.912;2023-06-04T20:32:35;15.70;1.00
20574;DHT22;10445;50.216;7.912;2023-06-04T20:35:24;15.70;1.00
20574;DHT22;10445;50.216;7.912;2023-06-04T20:38:12;15.70;1.00
20574;DHT22;10445;50.216;7.912;2023-06-04T20:41:01;15.70;1.00
20574;DHT22;10445;50.216;7.912;2023-06-04T20:43:53;15.70;1.00
20574;DHT22;10445;50.216;7.912;2023-06-04T20:46:42;15.80;1.00
20574;DHT22;10445;50.216;7.912;2023-06-04T20:49:31;15.80;1.00
20574;DHT22;10445;50.216;7.912;2023-06-04T20:52:20;15.90;1.00
20574;DHT22;10445;50.216;7.912;2023-06-04T20:55:09;15.90;1.00
20574;DHT22;10445;50.216;7.912;2023-06-04T20:57:59;15.90;1.00
20574;DHT22;10445;50.216;7.912;2023-06-04T21:01:06;15.90;1.00
20574;DHT22;10445;50.216;7.912;2023-06-04T21:04:00;15.80;1.00
20574;DHT22;10445;50.216;7.912;2023-06-04T21:06:51;15.80;1.00
20574;DHT22;10445;50.216;7.912;2023-06-04T21:09:40;15.80;1.00
20574;DHT22;10445;50.216;7.912;2023-06-04T21:12:32;15.70;1.00
20574;DHT22;10445;50.216;7.912;2023-06-04T21:15:22;15.80;1.00
20574;DHT22;10445;50.216;7.912;2023-06-04T21:18:13;15.90;1.00
20574;DHT22;10445;50.216;7.912;2023-06-04T21:21:03;15.80;1.00
20574;DHT22;10445;50.216;7.912;2023-06-04T21:23:52;15.80;1.00
20574;DHT22;10445;50.216;7.912;2023-06-04T21:26:42;15.80;1.00
20574;DHT22;10445;50.216;7.912;2023-06-04T21:29:32;15.80;1.00
20574;DHT22;10445;50.216;7.912;2023-06-04T21:32:28;15.80;1.00
20574;DHT22;10445;50.216;7.912;2023-06-04T21:35:26;15.80;1.00
20574;DHT22;10445;50.216;7.912;2023-06-04T21:38:18;15.70;1.00
20574;DHT22;10445;50.216;7.912;2023-06-04T21:41:12;15.70;1.00
20574;DHT22;10445;50.216;7.912;2023-06-04T21:44:04;15.60;1.00
20574;DHT22;10445;50.216;7.912;2023-06-04T21:46:54;15.50;1.00
20574;DHT22;10445;50.216;7.912;2023-06-04T21:49:43;15.40;1.00
20574;DHT22;10445;50.216;7.912;2023-06-04T21:52:33;15.30;1.00
20574;DHT22;10445;50.216;7.912;2023-06-04T21:55:22;15.30;1.00
20574;DHT22;10445;50.216;7.912;2023-06-04T21:58:16;15.20;1.00
20574;DHT22;10445;50.216;7.912;2023-06-04T22:01:11;15.20;1.00
